Plymouth, UT (84330)

4:18 AM MDT on May 25, 2015 (GMT -0600)
MesoWest | | Change Station
CLOSE
Current Station
Personal Weather Station
Location: Plymouth, UT
Elevation: 4495 ft
Nearby Weather Stations

Elev 4495 ft 41.89 °N, 112.17 °W | Updated 38 minutes ago

Overcast
Overcast
51 °F
Feels Like 51 °F
N
4
Wind Variable Wind from ESE
Gusts 5.0 mph

Today
High -- | Low -- °F
--% Chance of Precip.
Yesterday
High -- | Low -- °F
Precip. -- in
6:00 AM 8:51 PM
Waxing Crescent, 47% visible
Pressure 29.84 in
Visibility 10.0 miles
Clouds Overcast 6500 ft
Dew Point 47 °F
Humidity 87%
Rainfall in
Snow Depth Not available.
UV 0 out of 12
Pollen 5.40 out of 12
Air Quality Not available.
Flu Activity Sporadic
METAR KLGU 250951Z AUTO 16005KT 10SM OVC065 11/09 A2992 RMK AO2 SLP103 T01110089 TSNO

More Conditions Fewer Conditions

Pressure 29.84 in
Visibility 10.0 miles
Clouds Overcast 6500 ft
Dew Point 47 °F
Humidity 87%
Rainfall in
Snow Depth Not available.
UV 0 out of 12
Pollen 5.40 out of 12
Air Quality Not available.
Flu Activity Sporadic
METAR KLGU 250951Z AUTO 16005KT 10SM OVC065 11/09 A2992 RMK AO2 SLP103 T01110089 TSNO

More Conditions Fewer Conditions

10-Day Weather Forecast

Almanac

Astronomy

May. 25, 2015 Rise Set
Actual Time
Civil Twilight
Nautical Twilight
Astronomical Twilight
Moon
Length of Visible Light
Length of Day
Tomorrow will be .
, % of the Moon is Illuminated

Today's Extremes

State Highs State Lows

Community

WunderPhotos

Upload Photos

1,823,972 photos uploaded!

WunderBlogs® & News

Nearby

Air Quality

  Air Quality AQ Index Pollutant
Not available.

Snow Depth

Station Depth Elevation

Earthquake Activity

City Distance Mag. Time & Date
Minimum magnitude displayed is 2.5.

Coastal Water Temperatures

Place Temperature

Stations

Nearby Weather Stations

Station Location Temp. Windchill Dew Point Humidity Wind Precip. Elev Updated Type